首页
METAR-TAF:

METAR-TAF

机场 :

拉蒂纳, 意大利

纬度: 41-33N, 经度: 012-54E, 海拔: 25米

当前天气观测

该预报发布于1小时和11分钟前的06:55 UTC
风速3节,风向西转西北
温度 5°C
湿度 87%
气压 1007 hPa
能见度10公里或以上
少量云层高于7000英尺

METAR: LIRL 100655Z 29003KT 9999 FEW070 05/03 Q1007 RMK SCT SCT180 MON LIB NC VIS MIN 9999 WIND THR12 35002KT WIND THR30 35002KT BLU

时间: 09:06 (08:06 UTC)

预报

该预报发布于2小时和6分钟前的06:00 UTC
预报有效从10日的 07点(UTC)到 10日的 15点(UTC)
风速3节,风向多变
能见度10公里或以上
散云层高于7000英尺

TAF: LIRL 100600Z 1007/1015 VRB03KT 9999 SCT070

超过4000个机场的气象观测和天气预报(METAR&TAF报告)。

可查询的气象台以黄色和红色小点在地图上表示。

将鼠标移到小点上方,可查看气象台名称。

然后点击查看天气观测和预报。

如需切换地图:点击带黑十字的绿色按钮放大地图;点击带横线的绿色按钮缩小地图;或者点击绿色箭头查看邻近地区的地图。


METAR-TAF: